Time;durP1;ratioP1;P1;durP2;ratioP2;P2;SDS_P1;SDS_P2;PMS_P1;PMS_P2;Temp;Humidity;BMP_temperature;BMP_pressure;BME280_temperature;BME280_humidity;BME280_pressure;Samples;Min_cycle;Max_cycle;Signal;HPM_P1;HPM_P2
2021/08/21 00:00:53;;;;;;;8.43;2.17;;;17.70;74.50;;;;;;5015601;28;20104;-92
2021/08/21 00:03:20;;;;;;;8.25;2.03;;;17.70;74.50;;;;;;5015925;28;20069;-91
2021/08/21 00:05:47;;;;;;;7.72;1.90;;;17.70;74.60;;;;;;5015530;28;20524;-91
2021/08/21 00:08:14;;;;;;;6.05;1.92;;;17.60;74.60;;;;;;5015506;28;20093;-91
2021/08/21 00:10:41;;;;;;;9.48;1.88;;;17.60;74.50;;;;;;5015596;28;20686;-92
2021/08/21 00:13:07;;;;;;;9.93;1.90;;;17.50;74.50;;;;;;5015234;28;20042;-91
2021/08/21 00:15:34;;;;;;;5.50;1.75;;;17.50;74.40;;;;;;5015637;28;20481;-91
2021/08/21 00:18:02;;;;;;;4.63;1.75;;;17.50;74.60;;;;;;5000061;28;20054;-92
2021/08/21 00:20:29;;;;;;;8.38;2.05;;;17.50;74.70;;;;;;5011511;28;20053;-92
2021/08/21 00:22:55;;;;;;;9.40;2.30;;;17.50;74.70;;;;;;5014645;28;20045;-92
2021/08/21 00:25:22;;;;;;;3.95;1.80;;;17.40;74.90;;;;;;5015014;28;20141;-91
2021/08/21 00:27:49;;;;;;;4.53;1.85;;;17.40;75.00;;;;;;5015025;28;20054;-89
2021/08/21 00:30:16;;;;;;;4.47;1.90;;;17.40;75.10;;;;;;5015021;28;20042;-91
2021/08/21 00:32:43;;;;;;;4.60;1.88;;;17.40;75.20;;;;;;5015071;28;20085;-90
2021/08/21 00:35:11;;;;;;;6.22;1.73;;;17.40;75.20;;;;;;5015529;28;20057;-90
2021/08/21 00:37:38;;;;;;;4.78;1.65;;;17.30;75.20;;;;;;5014695;28;20077;-94
2021/08/21 00:40:06;;;;;;;4.25;1.70;;;17.30;75.00;;;;;;5013907;28;20045;-93
2021/08/21 00:42:35;;;;;;;5.30;2.20;;;17.30;74.90;;;;;;5014953;28;20052;-93
2021/08/21 00:45:06;;;;;;;7.03;1.92;;;17.30;74.90;;;;;;4998349;28;20057;-92
2021/08/21 00:47:33;;;;;;;5.75;1.67;;;17.20;74.90;;;;;;4995738;28;20046;-92
2021/08/21 00:50:00;;;;;;;4.45;2.05;;;17.20;74.90;;;;;;5014315;28;20050;-93
2021/08/21 00:52:34;;;;;;;5.93;1.95;;;17.20;74.90;;;;;;5014362;28;20404;-93
2021/08/21 00:55:01;;;;;;;11.35;2.30;;;17.10;74.80;;;;;;5014162;28;20057;-93
2021/08/21 00:57:31;;;;;;;4.05;1.45;;;17.10;74.90;;;;;;5014837;28;20045;-92
2021/08/21 00:59:58;;;;;;;6.35;1.70;;;17.10;74.80;;;;;;5013848;28;20080;-91
2021/08/21 01:02:25;;;;;;;3.78;1.80;;;17.00;74.80;;;;;;5014933;28;20054;-93
2021/08/21 01:04:55;;;;;;;5.95;1.77;;;17.00;74.70;;;;;;5014329;28;20118;-92
2021/08/21 01:07:29;;;;;;;6.13;2.33;;;16.90;74.60;;;;;;5013754;28;20054;-92
2021/08/21 01:10:08;;;;;;;8.43;1.73;;;16.90;74.60;;;;;;5014307;28;20058;-91
2021/08/21 01:12:36;;;;;;;3.22;1.38;;;16.90;74.60;;;;;;5014128;28;20069;-91
2021/08/21 01:15:04;;;;;;;6.05;1.40;;;16.90;74.50;;;;;;5013632;28;20100;-92
2021/08/21 01:17:31;;;;;;;3.33;1.48;;;16.80;74.50;;;;;;5014775;28;20053;-93
2021/08/21 01:19:58;;;;;;;4.55;1.85;;;16.80;74.50;;;;;;5013938;28;20116;-93
2021/08/21 01:22:28;;;;;;;5.05;1.65;;;16.70;74.50;;;;;;5013109;28;20120;-93
2021/08/21 01:24:56;;;;;;;4.38;1.50;;;16.70;74.50;;;;;;5013956;28;20046;-93
2021/08/21 01:27:26;;;;;;;4.85;2.67;;;16.70;74.50;;;;;;5014020;28;20065;-94
2021/08/21 01:29:54;;;;;;;4.30;1.67;;;16.70;74.60;;;;;;5013973;28;20088;-94
2021/08/21 01:32:22;;;;;;;11.23;2.08;;;16.60;74.70;;;;;;5014410;28;20054;-92
2021/08/21 01:34:49;;;;;;;7.53;2.05;;;16.60;74.70;;;;;;5013313;28;20069;-86
2021/08/21 01:37:17;;;;;;;5.78;2.10;;;16.60;74.60;;;;;;5013723;28;20521;-91
2021/08/21 01:39:46;;;;;;;5.05;2.08;;;16.50;74.70;;;;;;5013697;28;20041;-93
2021/08/21 01:42:14;;;;;;;5.82;2.35;;;16.50;74.70;;;;;;5013896;28;20104;-92
2021/08/21 01:44:41;;;;;;;6.22;2.10;;;16.50;74.70;;;;;;5013737;28;20054;-92
2021/08/21 01:47:09;;;;;;;6.40;1.88;;;16.50;74.70;;;;;;5014114;28;20045;-92
2021/08/21 01:49:40;;;;;;;8.00;2.20;;;16.40;74.70;;;;;;5012169;28;20053;-92
2021/08/21 01:52:07;;;;;;;6.07;2.17;;;16.40;74.80;;;;;;5013330;28;20474;-91
2021/08/21 01:54:35;;;;;;;8.57;2.00;;;16.40;75.00;;;;;;5012403;28;20054;-91
2021/08/21 01:57:04;;;;;;;4.70;1.80;;;16.40;75.00;;;;;;4997913;28;20054;-91
2021/08/21 01:59:46;;;;;;;7.90;2.15;;;16.40;75.00;;;;;;5014246;28;20042;-94
2021/08/21 02:02:15;;;;;;;4.15;1.90;;;16.30;75.00;;;;;;5011757;28;20422;-93
2021/08/21 02:04:42;;;;;;;8.70;2.03;;;16.30;75.00;;;;;;5012835;28;20049;-93
2021/08/21 02:07:10;;;;;;;5.05;2.17;;;16.30;75.10;;;;;;5012252;28;20057;-92
2021/08/21 02:09:37;;;;;;;5.95;2.20;;;16.20;75.00;;;;;;5013146;28;20050;-91
2021/08/21 02:12:06;;;;;;;6.25;2.10;;;16.20;75.00;;;;;;5012996;28;20487;-91
2021/08/21 02:14:34;;;;;;;5.05;2.20;;;16.20;75.20;;;;;;5013619;28;20526;-92
2021/08/21 02:17:02;;;;;;;4.03;1.88;;;16.10;75.50;;;;;;5012905;28;20054;-92
2021/08/21 02:19:30;;;;;;;5.07;2.00;;;16.20;75.60;;;;;;5012687;28;20105;-90
2021/08/21 02:21:59;;;;;;;3.35;1.65;;;16.10;75.60;;;;;;5041717;28;20104;-91
2021/08/21 02:24:27;;;;;;;3.35;1.80;;;16.10;75.70;;;;;;5000835;28;20049;-93
2021/08/21 02:26:57;;;;;;;3.50;1.80;;;16.10;75.60;;;;;;5013128;28;20128;-92
2021/08/21 02:29:25;;;;;;;7.45;1.85;;;16.10;75.60;;;;;;5012537;28;20041;-92
2021/08/21 02:31:55;;;;;;;5.25;1.60;;;16.10;75.40;;;;;;5012486;28;20573;-91
2021/08/21 02:34:28;;;;;;;5.32;2.00;;;16.00;75.30;;;;;;5012470;28;20057;-94
2021/08/21 02:36:55;;;;;;;3.65;1.70;;;16.00;75.40;;;;;;5012644;28;20050;-90
2021/08/21 02:39:22;;;;;;;4.25;1.63;;;16.00;75.30;;;;;;5012505;28;20092;-91
2021/08/21 02:41:49;;;;;;;5.25;2.28;;;15.90;75.30;;;;;;5012603;28;20045;-90
2021/08/21 02:44:16;;;;;;;3.88;1.90;;;15.90;75.40;;;;;;5013048;28;20488;-91
2021/08/21 02:46:43;;;;;;;3.35;1.55;;;15.90;75.40;;;;;;5012372;28;20465;-90
2021/08/21 02:49:10;;;;;;;4.03;2.13;;;15.90;75.40;;;;;;5012316;28;20041;-91
2021/08/21 02:51:37;;;;;;;4.65;1.40;;;15.90;75.40;;;;;;5012243;28;20099;-92
2021/08/21 02:54:04;;;;;;;3.88;1.60;;;15.90;75.40;;;;;;5011424;28;20057;-90
2021/08/21 02:56:31;;;;;;;4.57;1.55;;;15.80;75.40;;;;;;5012999;28;20510;-91
2021/08/21 02:58:58;;;;;;;4.82;1.50;;;15.80;75.30;;;;;;5012360;28;20050;-90
2021/08/21 03:01:25;;;;;;;9.95;1.88;;;15.70;75.30;;;;;;5011309;28;20105;-92
2021/08/21 03:03:52;;;;;;;3.53;1.48;;;15.70;75.40;;;;;;5012418;28;20054;-93
2021/08/21 03:06:19;;;;;;;8.68;1.98;;;15.70;75.40;;;;;;5011567;28;20116;-92
2021/08/21 03:08:46;;;;;;;4.47;1.80;;;15.70;75.30;;;;;;5012043;28;20050;-92
2021/08/21 03:11:13;;;;;;;4.93;1.45;;;15.70;75.30;;;;;;5009240;28;20580;-92
2021/08/21 03:13:43;;;;;;;4.60;1.60;;;15.60;75.20;;;;;;5012030;28;20473;-92
2021/08/21 03:16:10;;;;;;;3.20;1.50;;;15.60;75.30;;;;;;5011813;28;20042;-92
2021/08/21 03:18:37;;;;;;;9.07;1.85;;;15.60;75.40;;;;;;5015353;28;20081;-92
2021/08/21 03:21:04;;;;;;;5.15;1.75;;;15.60;75.40;;;;;;5047943;28;20042;-92
2021/08/21 03:23:31;;;;;;;3.85;1.50;;;15.50;75.30;;;;;;5016482;28;20053;-91
2021/08/21 03:25:58;;;;;;;5.38;1.85;;;15.60;75.40;;;;;;5015772;28;20065;-91
2021/08/21 03:28:25;;;;;;;4.38;1.50;;;15.50;75.40;;;;;;5047510;28;20054;-90
2021/08/21 03:30:52;;;;;;;15.10;2.00;;;15.50;75.30;;;;;;5014135;28;20050;-90
2021/08/21 03:33:19;;;;;;;6.15;1.70;;;15.40;75.10;;;;;;5014553;28;20096;-89
2021/08/21 03:35:46;;;;;;;4.95;1.70;;;15.40;75.20;;;;;;5015732;28;20556;-89
2021/08/21 03:38:14;;;;;;;5.13;1.60;;;15.40;75.40;;;;;;5014197;28;20388;-91
2021/08/21 03:40:41;;;;;;;6.22;1.95;;;15.40;75.40;;;;;;5038254;28;20054;-90
2021/08/21 03:43:08;;;;;;;4.22;1.55;;;15.40;75.30;;;;;;5008817;28;20100;-90
2021/08/21 03:45:36;;;;;;;3.38;1.48;;;15.40;75.30;;;;;;5015356;28;20120;-90
2021/08/21 03:48:03;;;;;;;4.38;1.92;;;15.40;75.40;;;;;;5000055;28;20467;-90
2021/08/21 03:50:31;;;;;;;7.55;2.03;;;15.30;75.50;;;;;;5010628;28;20104;-89
2021/08/21 03:52:58;;;;;;;7.55;1.65;;;15.30;75.40;;;;;;5015229;28;20108;-90
2021/08/21 03:55:25;;;;;;;3.55;1.60;;;15.30;75.40;;;;;;5015507;28;20395;-91
2021/08/21 03:57:52;;;;;;;4.57;1.65;;;15.20;75.40;;;;;;5015277;28;20045;-91
2021/08/21 04:00:19;;;;;;;3.95;2.00;;;15.20;75.50;;;;;;5014786;28;20434;-90
2021/08/21 04:02:46;;;;;;;4.35;1.85;;;15.20;75.50;;;;;;5015270;28;20133;-89
2021/08/21 04:05:13;;;;;;;4.75;2.00;;;15.20;75.40;;;;;;4996219;28;20065;-90
2021/08/21 04:07:40;;;;;;;4.35;1.88;;;15.20;75.40;;;;;;5012391;28;20131;-91
2021/08/21 04:10:07;;;;;;;3.90;1.83;;;15.20;75.40;;;;;;5046751;28;20054;-90
2021/08/21 04:12:36;;;;;;;3.90;2.03;;;15.10;75.40;;;;;;5014910;28;20057;-89
2021/08/21 04:15:03;;;;;;;8.02;1.60;;;15.10;75.50;;;;;;4999369;28;20057;-90
2021/08/21 04:17:30;;;;;;;4.18;2.13;;;15.10;75.60;;;;;;5011401;28;20058;-88
2021/08/21 04:19:57;;;;;;;5.38;2.10;;;15.10;75.60;;;;;;5013923;28;20458;-91
2021/08/21 04:22:23;;;;;;;5.72;1.95;;;15.00;75.60;;;;;;5013819;28;20046;-89
2021/08/21 04:24:50;;;;;;;4.80;1.80;;;15.00;75.70;;;;;;5014899;28;20038;-89
2021/08/21 04:27:17;;;;;;;4.10;1.50;;;15.00;75.70;;;;;;5014925;28;20054;-90
2021/08/21 04:29:46;;;;;;;4.50;2.00;;;15.00;75.70;;;;;;5013493;28;20046;-89
2021/08/21 04:32:13;;;;;;;4.40;1.95;;;15.00;75.70;;;;;;5015147;28;20065;-90
2021/08/21 04:34:40;;;;;;;5.57;2.15;;;14.90;75.70;;;;;;5014646;28;20058;-89
2021/08/21 04:37:06;;;;;;;9.02;1.70;;;14.90;75.70;;;;;;5013862;28;20068;-89
2021/08/21 04:39:33;;;;;;;5.85;1.77;;;14.90;75.70;;;;;;5007237;28;20073;-90
2021/08/21 04:42:00;;;;;;;4.03;1.77;;;14.90;75.60;;;;;;5030095;28;20045;-89
2021/08/21 04:44:27;;;;;;;4.20;1.85;;;14.90;75.60;;;;;;5014700;28;20120;-89
2021/08/21 04:46:55;;;;;;;8.43;2.10;;;14.90;75.50;;;;;;4996151;28;20046;-88
2021/08/21 04:49:23;;;;;;;9.82;2.13;;;14.80;75.50;;;;;;5008598;28;20568;-90
2021/08/21 04:51:49;;;;;;;7.25;1.77;;;14.80;75.60;;;;;;5004715;28;20042;-89
2021/08/21 04:54:16;;;;;;;5.05;1.58;;;14.80;75.60;;;;;;4997294;28;20092;-89
2021/08/21 04:56:43;;;;;;;7.88;2.10;;;14.70;75.80;;;;;;5013702;28;20045;-88
2021/08/21 04:59:10;;;;;;;6.88;2.15;;;14.70;76.00;;;;;;5001391;28;20105;-89
2021/08/21 05:01:37;;;;;;;5.53;2.28;;;14.70;76.20;;;;;;5011397;28;20112;-89
2021/08/21 05:04:04;;;;;;;5.95;2.10;;;14.80;76.30;;;;;;5013453;28;20045;-89
2021/08/21 05:06:31;;;;;;;5.55;2.10;;;14.80;76.30;;;;;;5013353;28;20042;-89
2021/08/21 05:08:58;;;;;;;6.43;2.17;;;14.70;76.30;;;;;;5013404;28;20568;-89
2021/08/21 05:11:25;;;;;;;8.60;2.10;;;14.70;76.20;;;;;;5014251;28;20052;-90
2021/08/21 05:13:52;;;;;;;6.22;1.90;;;14.70;76.20;;;;;;5012485;28;20045;-89
2021/08/21 05:16:20;;;;;;;12.32;2.55;;;14.70;76.30;;;;;;5013939;28;20086;-88
2021/08/21 05:18:51;;;;;;;5.10;2.20;;;14.70;76.40;;;;;;5013325;28;20049;-89
2021/08/21 05:21:26;;;;;;;5.10;1.98;;;14.70;76.50;;;;;;5013863;28;20050;-90
2021/08/21 05:23:55;;;;;;;7.78;2.00;;;14.70;76.60;;;;;;5013851;28;20062;-89
2021/08/21 05:26:22;;;;;;;6.82;2.00;;;14.70;76.60;;;;;;5013072;28;20045;-90
2021/08/21 05:28:49;;;;;;;4.63;1.90;;;14.60;76.60;;;;;;5012365;28;20053;-89
2021/08/21 05:31:17;;;;;;;7.90;2.17;;;14.60;76.80;;;;;;5013813;28;20422;-89
2021/08/21 05:33:44;;;;;;;5.10;1.90;;;14.70;76.90;;;;;;5012105;28;20058;-89
2021/08/21 05:36:11;;;;;;;6.57;1.63;;;14.70;77.00;;;;;;5012533;28;20129;-88
2021/08/21 05:38:38;;;;;;;3.72;1.73;;;14.60;77.10;;;;;;5013792;28;20062;-90
2021/08/21 05:41:05;;;;;;;5.85;1.95;;;14.70;77.20;;;;;;5011930;28;20046;-89
2021/08/21 05:43:31;;;;;;;4.57;1.80;;;14.70;77.20;;;;;;5012267;28;20124;-89
2021/08/21 05:45:58;;;;;;;7.35;1.80;;;14.70;77.20;;;;;;5013025;28;20042;-89
2021/08/21 05:48:25;;;;;;;6.15;1.73;;;14.70;77.40;;;;;;5044704;28;20053;-88
2021/08/21 05:50:52;;;;;;;5.70;1.90;;;14.70;77.40;;;;;;5012876;28;20968;-89
2021/08/21 05:53:19;;;;;;;3.75;1.70;;;14.80;77.50;;;;;;5013306;28;20054;-88
2021/08/21 05:55:46;;;;;;;3.92;1.90;;;14.80;77.60;;;;;;5012419;28;20087;-88
2021/08/21 05:58:13;;;;;;;4.25;2.22;;;14.80;77.70;;;;;;5012991;28;20054;-90
2021/08/21 06:00:40;;;;;;;7.65;1.92;;;14.80;77.70;;;;;;5012179;28;20104;-89
2021/08/21 06:03:07;;;;;;;8.38;2.53;;;14.90;77.80;;;;;;5044303;28;20053;-90
2021/08/21 06:05:34;;;;;;;5.75;2.60;;;14.90;77.90;;;;;;5011963;28;20050;-91
2021/08/21 06:08:01;;;;;;;4.80;2.10;;;14.90;78.00;;;;;;5012487;28;20046;-88
2021/08/21 06:10:28;;;;;;;6.70;3.30;;;14.90;78.10;;;;;;5036560;28;20058;-88
2021/08/21 06:12:55;;;;;;;6.35;3.03;;;14.90;78.20;;;;;;5002923;28;20057;-87
2021/08/21 06:15:22;;;;;;;6.22;3.08;;;14.90;78.40;;;;;;5012719;28;20049;-87
2021/08/21 06:17:49;;;;;;;7.38;3.08;;;15.00;78.50;;;;;;5013124;28;20050;-88
2021/08/21 06:20:16;;;;;;;4.32;2.10;;;15.00;78.50;;;;;;5012892;28;20052;-85
2021/08/21 06:22:43;;;;;;;6.72;2.85;;;15.00;78.60;;;;;;5012337;28;20054;-87
2021/08/21 06:25:10;;;;;;;12.15;2.63;;;15.10;78.70;;;;;;5043644;28;20064;-85
2021/08/21 06:27:38;;;;;;;7.65;2.70;;;15.10;78.70;;;;;;5012462;28;20104;-85
2021/08/21 06:30:06;;;;;;;8.35;2.33;;;15.10;78.70;;;;;;5012357;28;20046;-86
2021/08/21 06:32:33;;;;;;;5.03;2.30;;;15.20;78.80;;;;;;5012494;28;20054;-86
2021/08/21 06:35:00;;;;;;;9.23;3.08;;;15.20;78.80;;;;;;5012429;28;20069;-85
2021/08/21 06:37:27;;;;;;;7.90;3.40;;;15.30;78.80;;;;;;5010988;28;20061;-85
2021/08/21 06:39:54;;;;;;;6.70;3.08;;;15.30;78.90;;;;;;5007072;28;20061;-87
2021/08/21 06:42:21;;;;;;;10.30;3.20;;;15.30;79.00;;;;;;5011079;28;20127;-86
2021/08/21 06:44:48;;;;;;;10.82;3.72;;;15.30;79.10;;;;;;5000883;28;20046;-86
2021/08/21 06:47:17;;;;;;;11.52;3.20;;;15.40;79.10;;;;;;5012153;28;20057;-87
2021/08/21 06:49:44;;;;;;;6.28;2.80;;;15.40;79.20;;;;;;5011182;28;20050;-86
2021/08/21 06:52:11;;;;;;;7.70;4.03;;;15.40;79.20;;;;;;5012418;28;20046;-86
2021/08/21 06:54:38;;;;;;;7.35;3.63;;;15.50;79.40;;;;;;5015574;28;20050;-86
2021/08/21 06:57:05;;;;;;;5.82;2.92;;;15.60;79.70;;;;;;5006881;28;20409;-85
2021/08/21 06:59:32;;;;;;;7.75;4.05;;;15.60;79.70;;;;;;5016840;28;20105;-85
2021/08/21 07:02:02;;;;;;;8.38;4.97;;;15.60;79.90;;;;;;5028331;28;20098;-86
2021/08/21 07:04:30;;;;;;;9.15;4.70;;;15.70;80.00;;;;;;5011781;28;20511;-85
2021/08/21 07:06:57;;;;;;;10.35;5.88;;;15.70;80.30;;;;;;5016407;28;20042;-85
2021/08/21 07:09:24;;;;;;;12.45;6.55;;;15.80;80.50;;;;;;5015975;28;20057;-84
2021/08/21 07:11:51;;;;;;;16.75;6.57;;;15.90;80.60;;;;;;5016194;28;20096;-85
2021/08/21 07:14:18;;;;;;;9.63;5.53;;;15.90;80.70;;;;;;5016151;28;20112;-84
2021/08/21 07:16:45;;;;;;;10.43;5.82;;;15.90;81.00;;;;;;5015368;28;20458;-84
2021/08/21 07:19:12;;;;;;;16.58;8.05;;;16.10;81.20;;;;;;5016279;28;20422;-84
2021/08/21 07:21:39;;;;;;;11.85;6.88;;;16.10;81.30;;;;;;5015426;28;20122;-84
2021/08/21 07:24:06;;;;;;;16.75;7.35;;;16.20;81.40;;;;;;5016138;28;20565;-84
2021/08/21 07:26:33;;;;;;;14.15;7.80;;;16.30;81.50;;;;;;5014940;28;20419;-84
2021/08/21 07:29:00;;;;;;;14.07;7.65;;;16.30;81.50;;;;;;5015982;28;20104;-82
2021/08/21 07:31:27;;;;;;;14.40;7.18;;;16.40;81.40;;;;;;5016194;28;20046;-83
2021/08/21 07:33:55;;;;;;;13.45;8.05;;;16.40;81.40;;;;;;5011865;28;20049;-84
2021/08/21 07:36:23;;;;;;;9.35;5.30;;;16.50;81.50;;;;;;5015741;28;20465;-85
2021/08/21 07:38:52;;;;;;;14.13;6.05;;;16.70;81.60;;;;;;5015410;28;20100;-84
2021/08/21 07:41:19;;;;;;;11.57;6.57;;;16.80;81.70;;;;;;5016107;28;20057;-85
2021/08/21 07:43:47;;;;;;;15.38;6.43;;;16.90;81.80;;;;;;5015767;28;20049;-84
2021/08/21 07:46:14;;;;;;;12.10;7.00;;;17.00;81.80;;;;;;5015752;28;20053;-85
2021/08/21 07:48:41;;;;;;;12.18;7.03;;;17.10;81.90;;;;;;5015434;28;20512;-85
2021/08/21 07:51:08;;;;;;;12.73;7.35;;;17.20;81.90;;;;;;5013761;28;20076;-84
2021/08/21 07:53:36;;;;;;;11.90;5.63;;;17.40;81.90;;;;;;5014499;28;20092;-84
2021/08/21 07:56:09;;;;;;;9.63;5.28;;;17.50;81.70;;;;;;5014520;28;20057;-84
2021/08/21 07:58:35;;;;;;;12.48;6.25;;;17.60;81.40;;;;;;5014599;28;20053;-85
2021/08/21 08:01:02;;;;;;;10.75;5.40;;;17.70;81.10;;;;;;5014370;28;20153;-84
2021/08/21 08:03:30;;;;;;;8.68;5.20;;;17.90;81.00;;;;;;5014235;28;20454;-84
2021/08/21 08:05:57;;;;;;;8.23;4.68;;;18.00;80.80;;;;;;5014408;28;20123;-84
2021/08/21 08:08:23;;;;;;;9.63;4.90;;;18.10;80.70;;;;;;5015097;28;20050;-83
2021/08/21 08:10:51;;;;;;;14.27;5.50;;;18.30;80.50;;;;;;5014307;28;20083;-83
2021/08/21 08:13:19;;;;;;;11.32;4.28;;;18.40;80.20;;;;;;5014258;28;20141;-84
2021/08/21 08:15:46;;;;;;;9.70;4.07;;;18.60;79.90;;;;;;5014741;28;20053;-83
2021/08/21 08:18:13;;;;;;;10.70;4.57;;;18.70;79.40;;;;;;5014371;28;20046;-84
2021/08/21 08:20:39;;;;;;;7.35;3.60;;;18.90;79.00;;;;;;5014066;28;20049;-85
2021/08/21 08:23:06;;;;;;;9.52;4.68;;;18.90;78.70;;;;;;5013020;28;20050;-84
2021/08/21 08:25:34;;;;;;;9.05;3.78;;;19.10;78.40;;;;;;5013779;28;20578;-83
2021/08/21 08:28:01;;;;;;;5.72;3.42;;;19.20;78.30;;;;;;5013847;28;20049;-83
2021/08/21 08:30:27;;;;;;;11.18;3.92;;;19.30;78.00;;;;;;5014631;28;20050;-85
2021/08/21 08:32:54;;;;;;;7.22;3.40;;;19.50;78.00;;;;;;5014526;28;20058;-83
2021/08/21 08:35:21;;;;;;;5.47;3.20;;;19.60;77.90;;;;;;5014629;28;20053;-84
2021/08/21 08:37:48;;;;;;;8.45;3.33;;;19.80;77.80;;;;;;5046140;28;20046;-84
2021/08/21 08:40:16;;;;;;;4.90;2.92;;;19.80;77.50;;;;;;5014200;28;20058;-84
2021/08/21 08:42:44;;;;;;;6.53;3.47;;;19.90;76.80;;;;;;5013860;28;20502;-83
2021/08/21 08:45:13;;;;;;;7.80;3.05;;;20.10;76.40;;;;;;5014395;28;20053;-85
2021/08/21 08:47:41;;;;;;;5.15;3.08;;;20.20;75.90;;;;;;5014610;28;20096;-84
2021/08/21 08:50:11;;;;;;;6.15;3.40;;;20.30;75.70;;;;;;5014211;28;20124;-84
2021/08/21 08:52:39;;;;;;;7.07;3.53;;;20.40;75.60;;;;;;5014037;28;20502;-83
2021/08/21 08:55:08;;;;;;;11.23;3.42;;;20.50;75.30;;;;;;5014324;28;20049;-84
2021/08/21 08:57:43;;;;;;;5.72;3.17;;;20.60;74.90;;;;;;5014119;28;20572;-84
2021/08/21 09:00:14;;;;;;;7.18;3.05;;;20.70;74.60;;;;;;4997694;28;20582;-85
2021/08/21 09:02:44;;;;;;;5.43;2.95;;;20.80;74.10;;;;;;5014055;28;20050;-84
2021/08/21 09:05:13;;;;;;;5.28;3.22;;;20.90;73.80;;;;;;5013704;28;20046;-87
2021/08/21 09:07:56;;;;;;;7.00;3.25;;;21.10;73.60;;;;;;5013939;28;20104;-86
2021/08/21 09:10:29;;;;;;;6.38;3.08;;;21.20;73.30;;;;;;5013442;28;20058;-86
2021/08/21 09:13:07;;;;;;;6.13;3.20;;;21.30;73.00;;;;;;5013638;28;20494;-86
2021/08/21 09:15:36;;;;;;;4.28;2.70;;;21.40;72.70;;;;;;5013088;28;20057;-86
2021/08/21 09:18:17;;;;;;;7.70;3.28;;;21.40;72.30;;;;;;4998231;28;20065;-86
2021/08/21 09:20:47;;;;;;;6.28;3.30;;;21.50;72.10;;;;;;5010930;28;20384;-86
2021/08/21 09:23:32;;;;;;;6.28;3.10;;;21.60;72.00;;;;;;5011843;28;20441;-87
2021/08/21 09:26:20;;;;;;;8.43;3.78;;;21.70;71.70;;;;;;5012115;28;20513;-87
2021/08/21 09:28:50;;;;;;;6.45;3.17;;;21.80;71.30;;;;;;5013161;28;20053;-85
2021/08/21 09:31:20;;;;;;;8.05;3.70;;;21.90;71.10;;;;;;5013019;28;20049;-87
2021/08/21 09:33:56;;;;;;;13.75;3.42;;;22.00;71.20;;;;;;5012572;28;20050;-87
2021/08/21 09:36:40;;;;;;;5.65;2.95;;;22.10;71.00;;;;;;5011995;28;20042;-86
2021/08/21 09:39:12;;;;;;;7.07;2.80;;;22.30;70.90;;;;;;4998031;28;20061;-86
2021/08/21 09:41:57;;;;;;;12.68;3.50;;;22.40;70.50;;;;;;5013177;28;20502;-87
2021/08/21 09:44:29;;;;;;;7.30;3.10;;;22.50;69.80;;;;;;5013569;28;20107;-87
2021/08/21 09:47:17;;;;;;;7.90;3.20;;;22.60;69.40;;;;;;5012730;28;20062;-87
2021/08/21 09:49:45;;;;;;;10.63;3.42;;;22.70;69.20;;;;;;5012414;28;20046;-86
2021/08/21 09:52:16;;;;;;;5.22;2.95;;;22.90;68.90;;;;;;5012656;28;20053;-87
2021/08/21 09:55:06;;;;;;;11.63;3.67;;;22.90;68.50;;;;;;5044514;28;20077;-86
2021/08/21 09:57:33;;;;;;;4.00;2.50;;;23.00;68.30;;;;;;5012895;28;20080;-87
2021/08/21 10:00:01;;;;;;;6.60;2.85;;;23.20;67.80;;;;;;5012671;28;20473;-88
2021/08/21 10:02:33;;;;;;;6.15;2.72;;;23.30;67.50;;;;;;5009295;28;20050;-87
2021/08/21 10:05:01;;;;;;;6.32;2.63;;;23.40;67.50;;;;;;5010744;28;20490;-86
2021/08/21 10:07:35;;;;;;;6.72;2.60;;;23.50;67.20;;;;;;5011517;28;20514;-88
2021/08/21 10:10:04;;;;;;;8.73;2.80;;;23.70;66.90;;;;;;5005383;28;20108;-86
2021/08/21 10:12:34;;;;;;;6.28;2.63;;;23.80;66.80;;;;;;5012141;28;20046;-88
2021/08/21 10:15:03;;;;;;;5.90;2.80;;;23.90;66.10;;;;;;5011545;28;20053;-86
2021/08/21 10:17:31;;;;;;;5.30;2.40;;;24.10;65.20;;;;;;5007710;28;20049;-88
2021/08/21 10:19:58;;;;;;;7.97;2.72;;;24.20;64.90;;;;;;5011066;28;20506;-87
2021/08/21 10:22:27;;;;;;;7.45;2.67;;;24.30;64.50;;;;;;5006893;28;20457;-86
2021/08/21 10:25:01;;;;;;;5.38;2.38;;;24.40;64.10;;;;;;5011879;28;20529;-84
2021/08/21 10:27:37;;;;;;;8.65;2.70;;;24.50;63.80;;;;;;5011056;28;20046;-87
2021/08/21 10:30:17;;;;;;;5.50;2.63;;;24.60;63.30;;;;;;4995266;28;20107;-86
2021/08/21 10:33:02;;;;;;;4.50;2.50;;;24.70;62.90;;;;;;5009376;28;20498;-87
2021/08/21 10:35:54;;;;;;;7.20;2.65;;;24.70;62.60;;;;;;4997399;28;20582;-87
2021/08/21 10:38:31;;;;;;;4.55;2.40;;;24.80;62.70;;;;;;5011060;28;20104;-85
2021/08/21 10:41:00;;;;;;;6.97;2.63;;;24.80;63.00;;;;;;5011673;28;20050;-86
2021/08/21 10:43:44;;;;;;;4.75;2.35;;;24.90;63.00;;;;;;5011711;28;20054;-86
2021/08/21 10:46:12;;;;;;;;;;;24.90;62.60;;;;;;5010739;28;20116;-86
2021/08/21 10:48:39;;;;;;;5.90;2.53;;;24.90;62.50;;;;;;5010507;28;20321;-86
2021/08/21 10:51:30;;;;;;;8.43;2.70;;;24.90;62.70;;;;;;5011198;28;20049;-87
2021/08/21 10:53:57;;;;;;;5.78;2.28;;;25.00;62.60;;;;;;5011727;28;20112;-88
2021/08/21 10:56:35;;;;;;;13.30;3.05;;;25.10;62.40;;;;;;5012270;28;20104;-91
2021/08/21 10:59:02;;;;;;;4.47;2.30;;;25.10;62.00;;;;;;5008692;28;20077;-89
2021/08/21 11:01:29;;;;;;;6.93;2.50;;;25.10;61.90;;;;;;5036177;28;20042;-90
2021/08/21 11:03:57;;;;;;;4.32;2.55;;;25.20;61.80;;;;;;5002322;28;20049;-88
2021/08/21 11:06:35;;;;;;;6.47;2.67;;;25.30;61.70;;;;;;5042911;28;20495;-87
2021/08/21 11:09:07;;;;;;;7.25;2.42;;;25.40;61.40;;;;;;4996218;28;20502;-88
2021/08/21 11:11:49;;;;;;;4.93;2.67;;;25.40;61.30;;;;;;4992912;28;20085;-89
2021/08/21 11:14:27;;;;;;;5.70;2.63;;;25.40;61.20;;;;;;5010020;28;20045;-88
2021/08/21 11:17:02;;;;;;;6.80;2.70;;;25.60;61.10;;;;;;5011318;28;20046;-91
2021/08/21 11:19:30;;;;;;;3.72;2.38;;;25.60;60.60;;;;;;5010695;28;20050;-90
2021/08/21 11:22:18;;;;;;;4.70;2.60;;;25.70;60.30;;;;;;5011608;28;20116;-90
2021/08/21 11:24:51;;;;;;;5.85;2.83;;;25.80;60.00;;;;;;5011555;28;20053;-90
2021/08/21 11:27:24;;;;;;;9.27;2.72;;;25.90;60.00;;;;;;5011797;28;20092;-90
2021/08/21 11:32:44;;;;;;;6.38;2.45;;;26.10;59.90;;;;;;5008389;28;20502;-89
2021/08/21 11:35:20;;;;;;;4.90;2.50;;;26.20;59.90;;;;;;5010610;28;20058;-90
2021/08/21 11:37:50;;;;;;;5.13;2.80;;;26.30;60.00;;;;;;5011486;28;20054;-89
2021/08/21 11:40:20;;;;;;;8.27;2.53;;;26.30;59.70;;;;;;5013986;28;20518;-88
2021/08/21 11:42:53;;;;;;;7.43;2.53;;;26.30;59.40;;;;;;5015460;28;20058;-89
2021/08/21 11:45:21;;;;;;;4.60;2.15;;;26.40;59.10;;;;;;5014929;28;20046;-88
2021/08/21 11:47:53;;;;;;;5.85;2.80;;;26.40;58.70;;;;;;5015271;28;20049;-87
2021/08/21 11:50:28;;;;;;;4.18;2.20;;;26.40;58.60;;;;;;5014459;28;20059;-86
2021/08/21 11:52:58;;;;;;;6.68;2.70;;;26.50;58.30;;;;;;5012502;28;20058;-87
2021/08/21 11:55:27;;;;;;;6.70;3.00;;;26.50;58.50;;;;;;5014853;28;20565;-88
2021/08/21 11:57:56;;;;;;;6.43;2.60;;;26.50;58.40;;;;;;5014735;28;20053;-88
2021/08/21 12:00:25;;;;;;;9.32;2.63;;;26.60;58.40;;;;;;5014947;28;20045;-87
2021/08/21 12:02:57;;;;;;;10.27;3.08;;;26.60;58.30;;;;;;5013672;28;20053;-88
2021/08/21 12:05:54;;;;;;;5.78;2.50;;;26.60;58.50;;;;;;5015244;28;20495;-87
2021/08/21 12:08:25;;;;;;;6.95;2.95;;;26.60;58.10;;;;;;5014616;28;20050;-86
2021/08/21 12:10:58;;;;;;;4.75;2.58;;;26.60;58.50;;;;;;5014511;28;20057;-87
2021/08/21 12:13:36;;;;;;;5.70;2.85;;;26.70;58.80;;;;;;5014186;28;20050;-87
2021/08/21 12:16:15;;;;;;;6.05;3.05;;;26.80;58.60;;;;;;5013451;28;20056;-88
2021/08/21 12:18:48;;;;;;;5.90;2.30;;;26.70;58.00;;;;;;5014525;28;20038;-88
2021/08/21 12:21:19;;;;;;;4.78;2.72;;;26.80;57.80;;;;;;5014725;28;20506;-87
2021/08/21 12:23:48;;;;;;;5.47;2.58;;;26.80;57.80;;;;;;5014518;28;20049;-86
2021/08/21 12:26:29;;;;;;;4.45;2.47;;;26.80;58.20;;;;;;5013120;28;20053;-86
2021/08/21 12:28:55;;;;;;;7.63;2.80;;;26.80;58.30;;;;;;5013872;28;20045;-87
2021/08/21 12:31:41;;;;;;;5.38;2.95;;;26.90;57.80;;;;;;5014272;28;20050;-88
2021/08/21 12:34:07;;;;;;;6.82;2.40;;;26.90;57.70;;;;;;5014119;28;20050;-87
2021/08/21 12:36:42;;;;;;;5.40;3.05;;;27.00;57.60;;;;;;5014234;28;20049;-86
2021/08/21 12:39:27;;;;;;;8.52;2.78;;;27.00;57.50;;;;;;4999406;28;20065;-87
2021/08/21 12:42:05;;;;;;;5.50;2.80;;;27.00;57.30;;;;;;5013615;28;20062;-88
2021/08/21 12:44:36;;;;;;;6.05;2.85;;;27.00;57.20;;;;;;5010874;28;20049;-87
2021/08/21 12:47:17;;;;;;;4.97;2.60;;;27.00;57.20;;;;;;5012712;28;20414;-86
2021/08/21 12:49:47;;;;;;;8.10;2.80;;;26.90;56.90;;;;;;5012959;28;20534;-87
2021/08/21 12:52:25;;;;;;;6.85;2.45;;;26.90;56.90;;;;;;5014002;28;20502;-88
2021/08/21 12:55:05;;;;;;;4.55;2.83;;;26.90;57.00;;;;;;5013664;28;20045;-87
2021/08/21 12:57:33;;;;;;;4.47;2.95;;;26.90;56.90;;;;;;5013480;28;20507;-88
2021/08/21 13:00:08;;;;;;;6.78;2.60;;;26.80;56.90;;;;;;5014033;28;20064;-87